fbvideosaver.net alexa rank chart, fbvideosaver.net alexa rank daily changes

fbvideosaver.net alexa rank chart, fbvideosaver.net alexa rank daily changes

fbvideosaver.net
Actual rank:
21 863

RANK HISTORY

Date Rank Diff
2019/09/19 21 863 -7 399
2019/09/18 29 262 +11 263
2019/09/17 17 999 +4 969
2019/09/16 13 030 -509
2019/09/15 13 539 -12 645
2019/09/14 26 184 +1 792
2019/09/13 24 392 +11 117
2019/09/12 13 275 -2 752
2019/09/11 16 027 +3 850
2019/09/10 12 177 -1 255
2019/09/09 13 432 -8 499
2019/09/08 21 931 -24 375
2019/09/07 46 306 +25 604
2019/09/06 20 702 -13 086
2019/09/05 33 788 +17 864
2019/09/04 15 924 +2 362
2019/09/03 13 562 +793
2019/09/02 12 769 -4 364
2019/09/01 17 133 +1 596
2019/08/31 15 537 +3 353
2019/08/30 12 184 -2 912
2019/08/29 15 096 -2 099
2019/08/28 17 195 +5 485
2019/08/27 11 710 +1 144
2019/08/26 10 566 -13 500
2019/08/25 24 066 +5 395
2019/08/24 18 671 +7 306
2019/08/23 11 365 +4 442
2019/08/22 6 923 -13 629
2019/08/21 20 552 -960
2019/08/20 21 512 +12 471
2019/08/19 9 041 -111
2019/08/18 9 152 -16 517
2019/08/17 25 669 +2 732
2019/08/16 22 937 +17 187
2019/08/15 5 750 -6 954
2019/08/14 12 704 -1 708
2019/08/13 14 412 -1 319
2019/08/12 15 731 +2 194
2019/08/11 13 537 -18 669
2019/08/10 32 206 +3 985
2019/08/09 28 221 +4 741
2019/08/08 23 480 +9 952
2019/08/07 13 528 +3 556
2019/08/06 9 972 -5 518
2019/08/05 15 490 +826
2019/08/04 14 664 -12 420
2019/08/03 27 084 +11 639
2019/08/02 15 445 +4 247
2019/08/01 11 198 -4 425
2019/07/31 15 623 +5 304
2019/07/30 10 319 -3 098
2019/07/29 13 417 +440
2019/07/28 12 977 +3 513
2019/07/27 9 464 -8 583
2019/07/26 18 047 +10 653
2019/07/25 7 394 -7 302
2019/07/24 14 696 +805
2019/07/23 13 891 -1 834
2019/07/22 15 725 -9 872
2019/07/21 25 597

WIDGET FOR YOUR SITE

DOMAINS WITH THE NEAREST RANK

Domain Rank
vidbom.com 21 858
grantcardone.com 21 859
rico.com.vc 21 860
designingbuildings.co.uk 21 861
freemp3downloads.online 21 862
fbvideosaver.net 21 863
elnuevodiario.com.do 21 864
ihergo.com 21 865
easywp.com 21 866
mebank.ir 21 867
fiba.basketball 21 868

DOMAINS WITH THE NEAREST RANK BY TLD .net

Domain Rank
aebn.net 21 725
cccancer.net 21 756
motionkinetic.net 21 792
trend24h.net 21 821
2youhd.net 21 847
fbvideosaver.net 21 863
zamanalwsl.net 21 880
xpaja.net 21 902
televisionlibre.net 21 922
moviestape.net 21 927
a1.net 21 934